createdAt,value
2019-05-07T00:01:17.369Z,6.52
2019-05-07T00:03:52.889Z,6.52
2019-05-07T00:06:26.564Z,6.49
2019-05-07T00:09:00.329Z,6.46
2019-05-07T00:11:34.185Z,6.50
2019-05-07T00:14:07.871Z,6.50
2019-05-07T00:16:42.377Z,6.52
2019-05-07T00:19:16.238Z,6.53
2019-05-07T00:21:49.789Z,6.47
2019-05-07T00:24:22.927Z,6.47
2019-05-07T00:26:56.274Z,6.49
2019-05-07T00:29:32.113Z,6.42
2019-05-07T00:32:05.099Z,6.45
2019-05-07T00:34:43.813Z,6.51
2019-05-07T00:37:35.230Z,6.56
2019-05-07T00:40:31.999Z,6.60
2019-05-07T00:43:15.626Z,6.62
2019-05-07T00:45:57.022Z,6.62
2019-05-07T00:48:32.860Z,6.62
2019-05-07T00:51:24.280Z,6.65
2019-05-07T00:53:57.801Z,6.63
2019-05-07T00:56:33.198Z,6.63
2019-05-07T00:59:06.614Z,6.64
2019-05-07T01:01:39.848Z,6.64
2019-05-07T01:04:13.869Z,6.64
2019-05-07T01:06:47.817Z,6.63
2019-05-07T01:09:22.914Z,6.61
2019-05-07T01:11:57.062Z,6.57
2019-05-07T01:14:32.556Z,6.58
2019-05-07T01:17:06.089Z,6.56
2019-05-07T01:19:39.806Z,6.52
2019-05-07T01:22:13.366Z,6.50
2019-05-07T01:24:46.905Z,6.49
2019-05-07T01:27:22.621Z,6.42
2019-05-07T01:29:56.336Z,6.38
2019-05-07T01:33:03.996Z,6.37
2019-05-07T01:35:54.913Z,6.25
2019-05-07T01:38:28.484Z,6.27
2019-05-07T01:41:02.938Z,6.20
2019-05-07T01:43:36.649Z,6.14
2019-05-07T01:46:09.672Z,6.12
2019-05-07T01:48:43.977Z,6.07
2019-05-07T01:51:17.657Z,5.99
2019-05-07T01:53:52.445Z,5.93
2019-05-07T01:56:26.096Z,5.91
2019-05-07T01:58:59.400Z,5.95
2019-05-07T02:01:35.764Z,5.90
2019-05-07T02:04:18.039Z,5.88
2019-05-07T02:07:09.363Z,5.75
2019-05-07T02:09:51.893Z,5.58
2019-05-07T02:12:31.950Z,5.53
2019-05-07T02:15:07.023Z,5.44
2019-05-07T02:17:40.295Z,5.43
2019-05-07T02:20:14.027Z,5.36
2019-05-07T02:22:47.885Z,5.31
2019-05-07T02:25:22.109Z,5.34
2019-05-07T02:27:55.993Z,5.39
2019-05-07T02:30:29.303Z,5.28
2019-05-07T02:33:03.699Z,5.22
2019-05-07T02:35:37.581Z,5.20
2019-05-07T02:38:27.192Z,5.21
2019-05-07T02:41:13.957Z,5.20
2019-05-07T02:43:45.780Z,5.24
2019-05-07T02:46:30.905Z,5.31
2019-05-07T02:49:06.674Z,5.34
2019-05-07T02:51:46.023Z,5.34
2019-05-07T02:54:27.096Z,5.30
2019-05-07T02:57:03.234Z,5.30
2019-05-07T02:59:36.972Z,5.30
2019-05-07T03:02:13.720Z,5.35
2019-05-07T03:04:46.636Z,5.39
2019-05-07T03:07:20.181Z,5.37
2019-05-07T03:09:54.065Z,5.39
2019-05-07T03:12:27.307Z,5.41
2019-05-07T03:15:04.522Z,5.41
2019-05-07T03:17:36.729Z,5.41
2019-05-07T03:20:14.040Z,5.41
2019-05-07T03:22:47.438Z,5.36
2019-05-07T03:25:25.865Z,5.33
2019-05-07T03:27:59.506Z,5.34
2019-05-07T03:30:44.977Z,5.29
2019-05-07T03:33:36.559Z,5.21
2019-05-07T03:36:09.499Z,5.21
2019-05-07T03:38:43.968Z,5.24
2019-05-07T03:41:22.495Z,5.24
2019-05-07T03:43:55.254Z,5.25
2019-05-07T03:46:28.932Z,5.25
2019-05-07T03:49:04.016Z,5.23
2019-05-07T03:51:38.476Z,5.26
2019-05-07T03:54:14.502Z,5.24
2019-05-07T03:56:48.077Z,5.15
2019-05-07T03:59:23.125Z,5.19
2019-05-07T04:01:56.853Z,5.22
2019-05-07T04:04:33.203Z,5.28
2019-05-07T04:07:05.739Z,5.33
2019-05-07T04:09:39.593Z,5.37
2019-05-07T04:12:13.541Z,5.43
2019-05-07T04:14:46.752Z,5.47
2019-05-07T04:17:23.184Z,5.50
2019-05-07T04:19:55.818Z,5.53
2019-05-07T04:22:29.906Z,5.55
2019-05-07T04:25:13.237Z,5.56
2019-05-07T04:28:03.849Z,5.56
2019-05-07T04:30:38.249Z,5.50
2019-05-07T04:33:13.567Z,5.53
2019-05-07T04:35:53.835Z,5.54
2019-05-07T04:38:28.303Z,5.61
2019-05-07T04:41:03.824Z,5.65
2019-05-07T04:43:37.975Z,5.71
2019-05-07T04:46:14.492Z,5.74
2019-05-07T04:48:47.741Z,5.81
2019-05-07T04:51:26.908Z,5.88
2019-05-07T04:54:03.285Z,5.93
2019-05-07T04:56:37.017Z,5.97
2019-05-07T04:59:13.217Z,6.01
2019-05-07T05:01:53.262Z,6.04
2019-05-07T05:04:33.502Z,6.04
2019-05-07T05:07:02.834Z,6.00
2019-05-07T05:09:36.973Z,6.03
2019-05-07T05:12:13.027Z,6.10
2019-05-07T05:14:46.354Z,6.14
2019-05-07T05:17:22.348Z,6.15
2019-05-07T05:19:56.557Z,6.17
2019-05-07T05:23:04.260Z,6.30
2019-05-07T05:25:40.199Z,6.42
2019-05-07T05:28:14.949Z,6.50
2019-05-07T05:30:53.125Z,6.54
2019-05-07T05:33:26.420Z,6.63
2019-05-07T05:36:00.151Z,6.60
2019-05-07T05:38:34.235Z,6.72
2019-05-07T05:41:08.014Z,6.80
2019-05-07T05:43:58.824Z,6.90
2019-05-07T05:46:33.501Z,6.98
2019-05-07T05:49:08.202Z,7.08
2019-05-07T05:52:03.538Z,7.14
2019-05-07T05:54:43.887Z,7.21
2019-05-07T05:57:48.611Z,7.30
2019-05-07T06:00:58.649Z,7.39
2019-05-07T06:03:57.466Z,7.49
2019-05-07T06:06:37.201Z,7.47
2019-05-07T06:09:32.934Z,7.54
2019-05-07T06:12:23.233Z,7.62
2019-05-07T06:15:04.596Z,7.70
2019-05-07T06:18:02.768Z,7.79
2019-05-07T06:20:45.692Z,7.81
2019-05-07T06:23:27.551Z,7.87
2019-05-07T06:26:04.823Z,7.93
2019-05-07T06:28:35.194Z,8.00
2019-05-07T06:31:08.491Z,8.09
2019-05-07T06:33:42.911Z,8.14
2019-05-07T06:36:16.480Z,8.18
2019-05-07T06:38:59.292Z,8.27
2019-05-07T06:41:49.385Z,8.31
2019-05-07T06:44:24.138Z,8.35
2019-05-07T06:46:56.488Z,8.43
2019-05-07T06:49:32.274Z,8.50
2019-05-07T06:52:04.379Z,8.55
2019-05-07T06:54:36.347Z,8.62
2019-05-07T06:57:08.784Z,8.70
2019-05-07T06:59:47.656Z,8.80
2019-05-07T07:02:41.968Z,8.86
2019-05-07T07:05:34.308Z,8.96
2019-05-07T07:08:14.422Z,9.02
2019-05-07T07:11:09.625Z,9.09
2019-05-07T07:13:43.332Z,9.14
2019-05-07T07:16:17.261Z,9.18
2019-05-07T07:18:54.937Z,9.26
2019-05-07T07:21:26.795Z,9.29
2019-05-07T07:24:02.856Z,9.35
2019-05-07T07:26:37.176Z,9.35
2019-05-07T07:29:12.724Z,9.27
2019-05-07T07:31:53.290Z,9.36
2019-05-07T07:34:28.001Z,9.43
2019-05-07T07:37:17.467Z,9.46
2019-05-07T07:39:52.627Z,9.57
2019-05-07T07:42:25.934Z,9.68
2019-05-07T07:45:16.683Z,9.78
2019-05-07T07:47:49.397Z,9.84
2019-05-07T07:50:23.497Z,9.90
2019-05-07T07:52:57.620Z,9.89
2019-05-07T07:55:39.215Z,9.97
2019-05-07T07:58:17.946Z,10.08
2019-05-07T08:01:07.294Z,10.15
2019-05-07T08:03:41.793Z,10.19
2019-05-07T08:06:15.620Z,10.25
2019-05-07T08:08:49.670Z,10.35
2019-05-07T08:11:23.463Z,10.47
2019-05-07T08:13:57.041Z,10.60
2019-05-07T08:16:32.783Z,10.77
2019-05-07T08:19:18.432Z,10.92
2019-05-07T08:21:42.033Z,11.04
2019-05-07T08:24:16.569Z,11.20
2019-05-07T08:26:51.905Z,11.35
2019-05-07T08:29:27.317Z,11.45
2019-05-07T08:32:16.611Z,11.49
2019-05-07T08:34:58.215Z,11.56
2019-05-07T08:37:32.430Z,11.65
2019-05-07T08:40:05.927Z,11.73
2019-05-07T08:42:41.803Z,11.77
2019-05-07T08:45:32.971Z,11.73
2019-05-07T08:48:25.056Z,11.85
2019-05-07T08:50:59.044Z,11.91
2019-05-07T08:53:32.945Z,12.02
2019-05-07T08:56:07.275Z,12.09
2019-05-07T08:58:42.061Z,12.12
2019-05-07T09:01:16.109Z,12.14
2019-05-07T09:03:51.743Z,12.16
2019-05-07T09:06:37.356Z,12.20
2019-05-07T09:09:15.890Z,12.18
2019-05-07T09:11:51.910Z,12.25
2019-05-07T09:14:26.296Z,12.32
2019-05-07T09:17:02.443Z,12.03
2019-05-07T09:19:47.194Z,12.15
2019-05-07T09:22:12.656Z,12.23
2019-05-07T09:24:45.656Z,12.28
2019-05-07T09:27:25.647Z,12.34
2019-05-07T09:30:05.798Z,12.36
2019-05-07T09:32:48.137Z,12.27
2019-05-07T09:35:29.586Z,12.30
2019-05-07T09:38:03.673Z,12.38
2019-05-07T09:40:37.789Z,12.46
2019-05-07T09:43:12.131Z,12.62
2019-05-07T09:45:46.347Z,12.76
2019-05-07T09:48:22.134Z,12.86
2019-05-07T09:50:56.419Z,12.91
2019-05-07T09:53:32.132Z,12.94
2019-05-07T09:56:05.852Z,12.93
2019-05-07T09:58:39.491Z,12.95
2019-05-07T10:01:13.295Z,12.99
2019-05-07T10:03:47.290Z,13.02
2019-05-07T10:06:22.817Z,13.11
2019-05-07T10:08:56.824Z,13.19
2019-05-07T10:11:36.803Z,13.17
2019-05-07T10:14:12.451Z,13.17
2019-05-07T10:17:11.978Z,13.24
2019-05-07T10:19:46.453Z,13.28
2019-05-07T10:22:22.666Z,13.37
2019-05-07T10:24:56.049Z,13.40
2019-05-07T10:27:32.299Z,13.27
2019-05-07T10:30:05.539Z,13.30
2019-05-07T10:32:38.785Z,13.28
2019-05-07T10:35:13.054Z,13.26
2019-05-07T10:37:47.227Z,13.39
2019-05-07T10:40:22.398Z,13.47
2019-05-07T10:42:56.989Z,13.53
2019-05-07T10:45:42.949Z,13.46
2019-05-07T10:48:27.908Z,13.45
2019-05-07T10:51:02.129Z,13.44
2019-05-07T10:53:35.633Z,13.55
2019-05-07T10:56:11.674Z,13.70
2019-05-07T10:58:44.686Z,13.88
2019-05-07T11:01:22.422Z,13.93
2019-05-07T11:03:56.726Z,14.05
2019-05-07T11:06:32.318Z,14.05
2019-05-07T11:09:07.418Z,13.92
2019-05-07T11:11:42.338Z,13.78
2019-05-07T11:14:15.875Z,13.64
2019-05-07T11:17:11.924Z,13.51
2019-05-07T11:19:46.017Z,13.37
2019-05-07T11:22:22.056Z,13.37
2019-05-07T11:24:55.626Z,13.32
2019-05-07T11:27:29.386Z,13.36
2019-05-07T11:30:03.128Z,13.46
2019-05-07T11:32:36.319Z,13.47
2019-05-07T11:35:09.515Z,13.47
2019-05-07T11:37:44.403Z,13.47
2019-05-07T11:40:20.275Z,13.34
2019-05-07T11:43:17.825Z,13.18
2019-05-07T11:46:16.541Z,12.99
2019-05-07T11:49:04.835Z,13.00
2019-05-07T11:52:01.679Z,13.14
2019-05-07T11:54:34.095Z,13.52
2019-05-07T11:57:07.485Z,13.97
2019-05-07T11:59:41.753Z,14.29
2019-05-07T12:02:14.955Z,14.82
2019-05-07T12:04:48.422Z,15.18
2019-05-07T12:07:22.328Z,15.42
2019-05-07T12:09:55.186Z,15.86
2019-05-07T12:12:27.537Z,16.35
2019-05-07T12:15:02.295Z,16.76
2019-05-07T12:17:34.175Z,16.97
2019-05-07T12:20:06.697Z,17.17
2019-05-07T12:22:49.468Z,17.51
2019-05-07T12:25:23.509Z,17.67
2019-05-07T12:27:58.065Z,17.58
2019-05-07T12:30:38.175Z,17.50
2019-05-07T12:33:20.510Z,17.29
2019-05-07T12:35:53.423Z,17.23
2019-05-07T12:38:27.039Z,17.53
2019-05-07T12:41:02.565Z,17.67
2019-05-07T12:43:36.148Z,17.46
2019-05-07T12:46:08.700Z,17.39
2019-05-07T12:48:42.926Z,17.80
2019-05-07T12:51:17.254Z,18.10
2019-05-07T12:53:55.583Z,18.58
2019-05-07T12:56:29.218Z,19.07
2019-05-07T12:59:03.560Z,18.97
2019-05-07T13:01:53.676Z,18.46
2019-05-07T13:04:28.878Z,18.78
2019-05-07T13:07:12.343Z,18.88
2019-05-07T13:09:45.642Z,18.59
2019-05-07T13:12:21.615Z,18.42
2019-05-07T13:14:56.307Z,18.34
2019-05-07T13:17:30.826Z,17.75
2019-05-07T13:20:04.314Z,16.86
2019-05-07T13:22:38.065Z,16.24
2019-05-07T13:25:12.066Z,16.31
2019-05-07T13:27:46.397Z,16.44
2019-05-07T13:30:22.178Z,16.67
2019-05-07T13:32:56.809Z,16.87
2019-05-07T13:35:30.746Z,17.11
2019-05-07T13:38:38.293Z,17.31
2019-05-07T13:41:28.790Z,16.78
2019-05-07T13:44:22.735Z,17.18
2019-05-07T13:47:14.952Z,17.98
2019-05-07T13:49:48.428Z,18.07
2019-05-07T13:52:22.561Z,18.18
2019-05-07T13:54:56.753Z,18.36
2019-05-07T13:57:32.256Z,18.94
2019-05-07T14:00:07.505Z,19.45
2019-05-07T14:02:42.206Z,19.56
2019-05-07T14:05:15.978Z,20.39
2019-05-07T14:07:49.425Z,20.30
2019-05-07T14:10:23.640Z,20.92
2019-05-07T14:13:10.990Z,21.53
2019-05-07T14:15:35.032Z,21.99
2019-05-07T14:18:07.531Z,21.88
2019-05-07T14:20:42.502Z,21.62
2019-05-07T14:23:16.531Z,21.46
2019-05-07T14:25:52.558Z,20.77
2019-05-07T14:28:26.331Z,20.04
2019-05-07T14:31:01.865Z,19.55
2019-05-07T14:33:43.260Z,19.35
2019-05-07T14:36:22.338Z,19.34
2019-05-07T14:38:54.991Z,19.11
2019-05-07T14:41:28.870Z,19.05
2019-05-07T14:44:12.113Z,19.04
2019-05-07T14:46:50.937Z,18.96
2019-05-07T14:49:22.507Z,19.44
2019-05-07T14:51:56.630Z,19.86
2019-05-07T14:54:32.201Z,20.49
2019-05-07T14:57:06.752Z,20.76
2019-05-07T14:59:39.560Z,20.79
2019-05-07T15:02:13.489Z,20.58
2019-05-07T15:04:47.673Z,20.60
2019-05-07T15:07:22.722Z,20.29
2019-05-07T15:09:57.822Z,19.92
2019-05-07T15:12:33.015Z,19.45
2019-05-07T15:15:06.587Z,18.99
2019-05-07T15:17:49.383Z,18.60
2019-05-07T15:20:23.490Z,18.29
2019-05-07T15:23:02.795Z,18.10
2019-05-07T15:25:37.145Z,17.58
2019-05-07T15:28:12.328Z,17.28
2019-05-07T15:31:07.637Z,17.02
2019-05-07T15:33:41.772Z,16.86
2019-05-07T15:36:15.205Z,16.79
2019-05-07T15:38:49.039Z,16.77
2019-05-07T15:41:22.891Z,16.59
2019-05-07T15:43:56.541Z,16.54
2019-05-07T15:46:32.057Z,16.48
2019-05-07T15:49:05.776Z,16.40
2019-05-07T15:51:41.820Z,16.30
2019-05-07T15:54:14.811Z,16.25
2019-05-07T15:56:48.687Z,16.20
2019-05-07T15:59:25.316Z,16.33
2019-05-07T16:02:07.917Z,16.65
2019-05-07T16:04:41.831Z,16.76
2019-05-07T16:07:15.421Z,16.75
2019-05-07T16:09:49.134Z,16.56
2019-05-07T16:12:23.641Z,16.46
2019-05-07T16:14:57.514Z,16.40
2019-05-07T16:17:38.275Z,16.29
2019-05-07T16:20:12.113Z,16.19
2019-05-07T16:22:49.836Z,15.96
2019-05-07T16:25:23.566Z,15.80
2019-05-07T16:27:57.858Z,15.59
2019-05-07T16:30:32.358Z,15.48
2019-05-07T16:33:05.729Z,15.36
2019-05-07T16:35:39.105Z,15.17
2019-05-07T16:38:14.745Z,15.10
2019-05-07T16:40:48.178Z,15.06
2019-05-07T16:43:22.512Z,14.99
2019-05-07T16:45:56.786Z,14.93
2019-05-07T16:48:32.763Z,14.86
2019-05-07T16:51:05.946Z,14.79
2019-05-07T16:53:41.973Z,14.66
2019-05-07T16:56:14.882Z,14.57
2019-05-07T16:58:52.642Z,14.52
2019-05-07T17:01:26.389Z,14.45
2019-05-07T17:04:02.680Z,14.37
2019-05-07T17:06:36.485Z,14.28
2019-05-07T17:09:14.634Z,14.23
2019-05-07T17:11:48.779Z,14.18
2019-05-07T17:14:23.097Z,14.14
2019-05-07T17:16:57.360Z,14.07
2019-05-07T17:19:31.996Z,14.03
2019-05-07T17:22:06.576Z,13.97
2019-05-07T17:24:42.261Z,13.98
2019-05-07T17:27:15.715Z,13.97
2019-05-07T17:29:51.942Z,13.97
2019-05-07T17:32:25.935Z,13.83
2019-05-07T17:34:59.730Z,13.86
2019-05-07T17:37:34.186Z,13.88
2019-05-07T17:40:07.786Z,13.85
2019-05-07T17:42:42.031Z,13.65
2019-05-07T17:45:15.921Z,13.48
2019-05-07T17:47:49.235Z,13.49
2019-05-07T17:50:26.853Z,13.48
2019-05-07T17:53:01.021Z,13.43
2019-05-07T17:55:34.843Z,13.33
2019-05-07T17:58:08.384Z,13.26
2019-05-07T18:00:43.489Z,13.22
2019-05-07T18:03:32.541Z,12.92
2019-05-07T18:06:07.901Z,12.83
2019-05-07T18:08:41.360Z,12.65
2019-05-07T18:11:20.460Z,12.47
2019-05-07T18:13:51.740Z,12.34
2019-05-07T18:16:35.477Z,12.12
2019-05-07T18:19:08.831Z,12.04
2019-05-07T18:21:42.205Z,12.01
2019-05-07T18:24:17.387Z,11.92
2019-05-07T18:27:01.943Z,11.87
2019-05-07T18:29:34.505Z,11.77
2019-05-07T18:32:12.398Z,11.69
2019-05-07T18:34:45.779Z,11.70
2019-05-07T18:37:19.566Z,11.69
2019-05-07T18:39:52.710Z,11.64
2019-05-07T18:42:26.094Z,11.60
2019-05-07T18:44:58.903Z,11.61
2019-05-07T18:47:33.158Z,11.55
2019-05-07T18:50:05.890Z,11.48
2019-05-07T18:52:38.301Z,11.48
2019-05-07T18:55:12.018Z,11.49
2019-05-07T18:57:44.643Z,11.52
2019-05-07T19:00:26.336Z,11.53
2019-05-07T19:02:58.825Z,11.49
2019-05-07T19:05:32.495Z,11.46
2019-05-07T19:08:08.543Z,11.45
2019-05-07T19:10:39.896Z,11.41
2019-05-07T19:13:12.467Z,11.36
2019-05-07T19:15:45.863Z,11.36
2019-05-07T19:18:18.725Z,11.34
2019-05-07T19:20:53.084Z,11.33
2019-05-07T19:23:25.891Z,11.32
2019-05-07T19:26:03.413Z,11.30
2019-05-07T19:28:36.025Z,11.28
2019-05-07T19:31:13.805Z,11.26
2019-05-07T19:33:46.809Z,11.25
2019-05-07T19:36:19.298Z,11.26
2019-05-07T19:38:52.581Z,11.26
2019-05-07T19:41:25.853Z,11.24
2019-05-07T19:43:58.968Z,11.25
2019-05-07T19:46:31.473Z,11.23
2019-05-07T19:49:07.037Z,11.22
2019-05-07T19:51:38.822Z,11.20
2019-05-07T19:54:11.687Z,11.23
2019-05-07T19:56:44.335Z,11.24
2019-05-07T19:59:17.305Z,11.24
2019-05-07T20:01:57.701Z,11.24
2019-05-07T20:04:32.003Z,11.23
2019-05-07T20:07:04.238Z,11.24
2019-05-07T20:09:38.747Z,11.23
2019-05-07T20:12:12.296Z,11.19
2019-05-07T20:14:45.669Z,11.15
2019-05-07T20:17:21.709Z,11.11
2019-05-07T20:19:54.107Z,11.05
2019-05-07T20:22:26.586Z,11.01
2019-05-07T20:25:14.758Z,10.96
2019-05-07T20:27:33.682Z,10.91
2019-05-07T20:30:05.853Z,10.86
2019-05-07T20:32:39.255Z,10.81
2019-05-07T20:35:12.206Z,10.76
2019-05-07T20:37:45.225Z,10.68
2019-05-07T20:40:18.586Z,10.63
2019-05-07T20:42:53.174Z,10.54
2019-05-07T20:45:32.393Z,10.47
2019-05-07T20:48:09.086Z,10.40
2019-05-07T20:50:46.927Z,10.36
2019-05-07T20:53:42.344Z,10.30
2019-05-07T20:56:18.822Z,10.20
2019-05-07T20:58:55.059Z,10.17
2019-05-07T21:01:28.019Z,10.10
2019-05-07T21:04:02.083Z,10.07
2019-05-07T21:06:35.530Z,10.01
2019-05-07T21:09:12.443Z,9.95
2019-05-07T21:11:44.822Z,9.89
2019-05-07T21:14:19.915Z,9.83
2019-05-07T21:16:52.848Z,9.77
2019-05-07T21:19:25.344Z,9.72
2019-05-07T21:21:57.785Z,9.67
2019-05-07T21:24:32.867Z,9.60
2019-05-07T21:27:06.329Z,9.52
2019-05-07T21:29:42.323Z,9.47
2019-05-07T21:32:16.390Z,9.43
2019-05-07T21:34:50.161Z,9.39
2019-05-07T21:37:24.417Z,9.35
2019-05-07T21:39:58.226Z,9.31
2019-05-07T21:42:32.320Z,9.27
2019-05-07T21:45:05.586Z,9.24
2019-05-07T21:47:39.884Z,9.18
2019-05-07T21:50:14.190Z,9.17
2019-05-07T21:52:54.081Z,9.14
2019-05-07T21:55:36.415Z,9.12
2019-05-07T21:58:43.755Z,9.11
2019-05-07T22:01:22.413Z,9.06
2019-05-07T22:03:57.495Z,9.03
2019-05-07T22:06:31.617Z,9.02
2019-05-07T22:09:07.150Z,8.97
2019-05-07T22:11:42.603Z,8.93
2019-05-07T22:14:15.266Z,8.90
2019-05-07T22:16:48.952Z,8.89
2019-05-07T22:19:22.663Z,8.85
2019-05-07T22:21:56.802Z,8.84
2019-05-07T22:24:30.094Z,8.82
2019-05-07T22:27:04.250Z,8.82
2019-05-07T22:29:38.121Z,8.81
2019-05-07T22:32:26.541Z,8.80
2019-05-07T22:35:07.896Z,8.77
2019-05-07T22:37:42.041Z,8.75
2019-05-07T22:40:16.145Z,8.76
2019-05-07T22:42:49.990Z,8.74
2019-05-07T22:45:24.176Z,8.71
2019-05-07T22:47:57.761Z,8.69
2019-05-07T22:50:33.165Z,8.66
2019-05-07T22:53:06.345Z,8.65
2019-05-07T22:55:41.897Z,8.65
2019-05-07T22:58:32.661Z,8.64
2019-05-07T23:01:08.618Z,8.60
2019-05-07T23:03:42.987Z,8.57
2019-05-07T23:06:16.765Z,8.54
2019-05-07T23:08:52.959Z,8.50
2019-05-07T23:11:26.613Z,8.48
2019-05-07T23:14:02.470Z,8.46
2019-05-07T23:16:34.945Z,8.45
2019-05-07T23:19:09.186Z,8.43
2019-05-07T23:21:42.792Z,8.40
2019-05-07T23:24:16.912Z,8.39
2019-05-07T23:26:53.258Z,8.38
2019-05-07T23:29:26.328Z,8.36
2019-05-07T23:32:01.942Z,8.33
2019-05-07T23:34:36.296Z,8.29
2019-05-07T23:37:11.644Z,8.25
2019-05-07T23:39:46.567Z,8.21
2019-05-07T23:42:27.573Z,8.19
2019-05-07T23:45:01.967Z,8.14
2019-05-07T23:47:36.286Z,8.11
2019-05-07T23:50:08.931Z,8.07
2019-05-07T23:52:44.155Z,8.03
2019-05-07T23:55:18.343Z,7.98
2019-05-07T23:57:52.678Z,7.91
